sensor_id;sensor_type;location;lat;lon;timestamp;temperature;humidity
15013;DHT22;7603;49.432;11.418;2022-10-31T00:00:50;9.40;99.90
15013;DHT22;7603;49.432;11.418;2022-10-31T00:03:16;9.40;99.90
15013;DHT22;7603;49.432;11.418;2022-10-31T00:05:47;9.40;99.90
15013;DHT22;7603;49.432;11.418;2022-10-31T00:08:14;9.40;99.90
15013;DHT22;7603;49.432;11.418;2022-10-31T00:10:41;9.40;99.90
15013;DHT22;7603;49.432;11.418;2022-10-31T00:13:08;9.40;99.90
15013;DHT22;7603;49.432;11.418;2022-10-31T00:15:35;9.40;99.90
15013;DHT22;7603;49.432;11.418;2022-10-31T00:18:01;9.40;99.90
15013;DHT22;7603;49.432;11.418;2022-10-31T00:20:27;9.40;99.90
15013;DHT22;7603;49.432;11.418;2022-10-31T00:22:52;9.40;99.90
15013;DHT22;7603;49.432;11.418;2022-10-31T00:25:18;9.40;99.90
15013;DHT22;7603;49.432;11.418;2022-10-31T00:27:45;9.40;99.90
15013;DHT22;7603;49.432;11.418;2022-10-31T00:30:11;9.40;99.90
15013;DHT22;7603;49.432;11.418;2022-10-31T00:32:37;9.40;99.90
15013;DHT22;7603;49.432;11.418;2022-10-31T00:35:03;9.40;99.90
15013;DHT22;7603;49.432;11.418;2022-10-31T00:37:28;9.40;99.90
15013;DHT22;7603;49.432;11.418;2022-10-31T00:39:54;9.30;99.90
15013;DHT22;7603;49.432;11.418;2022-10-31T00:42:20;9.30;99.90
15013;DHT22;7603;49.432;11.418;2022-10-31T00:44:46;9.30;99.90
15013;DHT22;7603;49.432;11.418;2022-10-31T00:47:12;9.30;99.90
15013;DHT22;7603;49.432;11.418;2022-10-31T00:49:37;9.30;99.90
15013;DHT22;7603;49.432;11.418;2022-10-31T00:52:03;9.30;99.90
15013;DHT22;7603;49.432;11.418;2022-10-31T00:54:28;9.30;99.90
15013;DHT22;7603;49.432;11.418;2022-10-31T00:56:56;9.30;99.90
15013;DHT22;7603;49.432;11.418;2022-10-31T00:59:22;9.30;99.90
15013;DHT22;7603;49.432;11.418;2022-10-31T01:01:48;9.30;99.90
15013;DHT22;7603;49.432;11.418;2022-10-31T01:04:14;9.30;99.90
15013;DHT22;7603;49.432;11.418;2022-10-31T01:06:39;9.30;99.90
15013;DHT22;7603;49.432;11.418;2022-10-31T01:09:05;9.30;99.90
15013;DHT22;7603;49.432;11.418;2022-10-31T01:11:31;9.40;99.90
15013;DHT22;7603;49.432;11.418;2022-10-31T01:13:57;9.30;99.90
15013;DHT22;7603;49.432;11.418;2022-10-31T01:16:25;9.30;99.90
15013;DHT22;7603;49.432;11.418;2022-10-31T01:18:51;9.30;99.90
15013;DHT22;7603;49.432;11.418;2022-10-31T01:21:20;9.20;99.90
15013;DHT22;7603;49.432;11.418;2022-10-31T01:23:46;9.20;99.90
15013;DHT22;7603;49.432;11.418;2022-10-31T01:26:14;9.20;99.90
15013;DHT22;7603;49.432;11.418;2022-10-31T01:28:49;9.10;99.90
15013;DHT22;7603;49.432;11.418;2022-10-31T01:31:17;9.10;99.90
15013;DHT22;7603;49.432;11.418;2022-10-31T01:33:43;9.00;99.90
15013;DHT22;7603;49.432;11.418;2022-10-31T01:36:24;9.00;99.90
15013;DHT22;7603;49.432;11.418;2022-10-31T01:38:51;8.90;99.90
15013;DHT22;7603;49.432;11.418;2022-10-31T01:41:23;8.90;99.90
15013;DHT22;7603;49.432;11.418;2022-10-31T01:43:55;8.90;99.90
15013;DHT22;7603;49.432;11.418;2022-10-31T01:48:51;8.90;99.90
15013;DHT22;7603;49.432;11.418;2022-10-31T01:51:20;8.80;99.90
15013;DHT22;7603;49.432;11.418;2022-10-31T01:53:48;8.80;99.90
15013;DHT22;7603;49.432;11.418;2022-10-31T01:56:16;8.80;99.90
15013;DHT22;7603;49.432;11.418;2022-10-31T01:58:44;8.70;99.90
15013;DHT22;7603;49.432;11.418;2022-10-31T02:01:11;8.70;99.90
15013;DHT22;7603;49.432;11.418;2022-10-31T02:03:38;8.70;99.90
15013;DHT22;7603;49.432;11.418;2022-10-31T02:06:07;8.70;99.90
15013;DHT22;7603;49.432;11.418;2022-10-31T02:08:37;8.70;99.90
15013;DHT22;7603;49.432;11.418;2022-10-31T02:11:05;8.70;99.90
15013;DHT22;7603;49.432;11.418;2022-10-31T02:13:33;8.70;99.90
15013;DHT22;7603;49.432;11.418;2022-10-31T02:15:59;8.60;99.90
15013;DHT22;7603;49.432;11.418;2022-10-31T02:18:28;8.60;99.90
15013;DHT22;7603;49.432;11.418;2022-10-31T02:29:32;8.70;99.90
15013;DHT22;7603;49.432;11.418;2022-10-31T02:35:24;8.70;99.90
15013;DHT22;7603;49.432;11.418;2022-10-31T02:38:08;8.70;99.90
15013;DHT22;7603;49.432;11.418;2022-10-31T02:40:48;8.70;99.90
15013;DHT22;7603;49.432;11.418;2022-10-31T02:43:27;8.80;99.90
15013;DHT22;7603;49.432;11.418;2022-10-31T02:46:11;8.90;99.90
15013;DHT22;7603;49.432;11.418;2022-10-31T02:48:40;9.00;99.90
15013;DHT22;7603;49.432;11.418;2022-10-31T02:51:08;9.00;99.90
15013;DHT22;7603;49.432;11.418;2022-10-31T02:53:36;9.00;99.90
15013;DHT22;7603;49.432;11.418;2022-10-31T02:56:12;8.90;99.90
15013;DHT22;7603;49.432;11.418;2022-10-31T02:58:52;8.90;99.90
15013;DHT22;7603;49.432;11.418;2022-10-31T03:07:13;8.80;99.90
15013;DHT22;7603;49.432;11.418;2022-10-31T03:15:20;8.80;99.90
15013;DHT22;7603;49.432;11.418;2022-10-31T03:17:53;8.90;99.90
15013;DHT22;7603;49.432;11.418;2022-10-31T03:20:26;8.90;99.90
15013;DHT22;7603;49.432;11.418;2022-10-31T03:22:55;9.00;99.90
15013;DHT22;7603;49.432;11.418;2022-10-31T03:25:22;9.00;99.90
15013;DHT22;7603;49.432;11.418;2022-10-31T03:27:49;9.00;99.90
15013;DHT22;7603;49.432;11.418;2022-10-31T03:30:16;9.00;99.90
15013;DHT22;7603;49.432;11.418;2022-10-31T03:32:48;9.00;99.90
15013;DHT22;7603;49.432;11.418;2022-10-31T03:35:19;8.90;99.90
15013;DHT22;7603;49.432;11.418;2022-10-31T03:37:46;8.90;99.90
15013;DHT22;7603;49.432;11.418;2022-10-31T03:40:14;8.90;99.90
15013;DHT22;7603;49.432;11.418;2022-10-31T03:42:43;8.80;99.90
15013;DHT22;7603;49.432;11.418;2022-10-31T03:45:20;8.80;99.90
15013;DHT22;7603;49.432;11.418;2022-10-31T03:47:47;8.80;99.90
15013;DHT22;7603;49.432;11.418;2022-10-31T03:50:14;8.70;99.90
15013;DHT22;7603;49.432;11.418;2022-10-31T03:53:11;8.70;99.90
15013;DHT22;7603;49.432;11.418;2022-10-31T03:55:51;8.80;99.90
15013;DHT22;7603;49.432;11.418;2022-10-31T03:58:27;8.70;99.90
15013;DHT22;7603;49.432;11.418;2022-10-31T04:00:56;8.70;99.90
15013;DHT22;7603;49.432;11.418;2022-10-31T04:03:26;8.60;99.90
15013;DHT22;7603;49.432;11.418;2022-10-31T04:05:55;8.70;99.90
15013;DHT22;7603;49.432;11.418;2022-10-31T04:08:26;8.70;99.90
15013;DHT22;7603;49.432;11.418;2022-10-31T04:10:52;8.70;99.90
15013;DHT22;7603;49.432;11.418;2022-10-31T04:13:24;8.60;99.90
15013;DHT22;7603;49.432;11.418;2022-10-31T04:15:52;8.60;99.90
15013;DHT22;7603;49.432;11.418;2022-10-31T04:18:19;8.60;99.90
15013;DHT22;7603;49.432;11.418;2022-10-31T04:20:47;8.60;99.90
15013;DHT22;7603;49.432;11.418;2022-10-31T04:23:23;8.60;99.90
15013;DHT22;7603;49.432;11.418;2022-10-31T04:25:49;8.50;99.90
15013;DHT22;7603;49.432;11.418;2022-10-31T04:28:15;8.40;99.90
15013;DHT22;7603;49.432;11.418;2022-10-31T04:30:40;8.40;99.90
15013;DHT22;7603;49.432;11.418;2022-10-31T04:33:06;8.40;99.90
15013;DHT22;7603;49.432;11.418;2022-10-31T04:35:32;8.40;99.90
15013;DHT22;7603;49.432;11.418;2022-10-31T04:37:57;8.40;99.90
15013;DHT22;7603;49.432;11.418;2022-10-31T04:40:23;8.40;99.90
15013;DHT22;7603;49.432;11.418;2022-10-31T04:42:48;8.40;99.90
15013;DHT22;7603;49.432;11.418;2022-10-31T04:45:14;8.30;99.90
15013;DHT22;7603;49.432;11.418;2022-10-31T04:47:40;8.30;99.90
15013;DHT22;7603;49.432;11.418;2022-10-31T04:50:05;8.30;99.90
15013;DHT22;7603;49.432;11.418;2022-10-31T04:52:32;8.30;99.90
15013;DHT22;7603;49.432;11.418;2022-10-31T04:54:57;8.30;99.90
15013;DHT22;7603;49.432;11.418;2022-10-31T04:57:23;8.30;99.90
15013;DHT22;7603;49.432;11.418;2022-10-31T04:59:49;8.30;99.90
15013;DHT22;7603;49.432;11.418;2022-10-31T05:02:14;8.30;99.90
15013;DHT22;7603;49.432;11.418;2022-10-31T05:04:40;8.20;99.90
15013;DHT22;7603;49.432;11.418;2022-10-31T05:07:06;8.20;99.90
15013;DHT22;7603;49.432;11.418;2022-10-31T05:09:31;8.20;99.90
15013;DHT22;7603;49.432;11.418;2022-10-31T05:11:57;8.10;99.90
15013;DHT22;7603;49.432;11.418;2022-10-31T05:14:22;8.10;99.90
15013;DHT22;7603;49.432;11.418;2022-10-31T05:16:48;8.10;99.90
15013;DHT22;7603;49.432;11.418;2022-10-31T05:19:14;8.10;99.90
15013;DHT22;7603;49.432;11.418;2022-10-31T05:21:39;8.00;99.90
15013;DHT22;7603;49.432;11.418;2022-10-31T05:24:05;8.00;99.90
15013;DHT22;7603;49.432;11.418;2022-10-31T05:26:31;8.00;99.90
15013;DHT22;7603;49.432;11.418;2022-10-31T05:28:56;8.00;99.90
15013;DHT22;7603;49.432;11.418;2022-10-31T05:31:22;8.00;99.90
15013;DHT22;7603;49.432;11.418;2022-10-31T05:33:48;8.00;99.90
15013;DHT22;7603;49.432;11.418;2022-10-31T05:36:13;7.90;99.90
15013;DHT22;7603;49.432;11.418;2022-10-31T05:38:39;7.90;99.90
15013;DHT22;7603;49.432;11.418;2022-10-31T05:41:05;7.80;99.90
15013;DHT22;7603;49.432;11.418;2022-10-31T05:43:30;7.80;99.90
15013;DHT22;7603;49.432;11.418;2022-10-31T05:45:56;7.70;99.90
15013;DHT22;7603;49.432;11.418;2022-10-31T05:48:22;7.70;99.90
15013;DHT22;7603;49.432;11.418;2022-10-31T05:50:49;7.60;99.90
15013;DHT22;7603;49.432;11.418;2022-10-31T05:53:15;7.60;99.90
15013;DHT22;7603;49.432;11.418;2022-10-31T05:55:42;7.60;99.90
15013;DHT22;7603;49.432;11.418;2022-10-31T05:58:09;7.60;99.90
15013;DHT22;7603;49.432;11.418;2022-10-31T06:00:35;7.50;99.90
15013;DHT22;7603;49.432;11.418;2022-10-31T06:03:02;7.60;99.90
15013;DHT22;7603;49.432;11.418;2022-10-31T06:05:29;7.60;99.90
15013;DHT22;7603;49.432;11.418;2022-10-31T06:07:55;7.60;99.90
15013;DHT22;7603;49.432;11.418;2022-10-31T06:10:21;7.60;99.90
15013;DHT22;7603;49.432;11.418;2022-10-31T06:12:47;7.60;99.90
15013;DHT22;7603;49.432;11.418;2022-10-31T06:15:13;7.60;99.90
15013;DHT22;7603;49.432;11.418;2022-10-31T06:17:39;7.60;99.90
15013;DHT22;7603;49.432;11.418;2022-10-31T06:20:05;7.60;99.90
15013;DHT22;7603;49.432;11.418;2022-10-31T06:22:31;7.60;99.90
15013;DHT22;7603;49.432;11.418;2022-10-31T06:24:57;7.60;99.90
15013;DHT22;7603;49.432;11.418;2022-10-31T06:27:23;7.60;99.90
15013;DHT22;7603;49.432;11.418;2022-10-31T06:29:49;7.70;99.90
15013;DHT22;7603;49.432;11.418;2022-10-31T06:32:15;7.80;99.90
15013;DHT22;7603;49.432;11.418;2022-10-31T06:34:41;7.90;99.90
15013;DHT22;7603;49.432;11.418;2022-10-31T06:37:08;7.90;99.90
15013;DHT22;7603;49.432;11.418;2022-10-31T06:39:34;7.90;99.90
15013;DHT22;7603;49.432;11.418;2022-10-31T06:42:00;8.00;99.90
15013;DHT22;7603;49.432;11.418;2022-10-31T06:44:26;8.00;99.90
15013;DHT22;7603;49.432;11.418;2022-10-31T06:46:52;8.10;99.90
15013;DHT22;7603;49.432;11.418;2022-10-31T06:49:18;8.10;99.90
15013;DHT22;7603;49.432;11.418;2022-10-31T06:51:47;8.20;99.90
15013;DHT22;7603;49.432;11.418;2022-10-31T06:54:13;8.20;99.90
15013;DHT22;7603;49.432;11.418;2022-10-31T06:56:39;8.30;99.90
15013;DHT22;7603;49.432;11.418;2022-10-31T06:59:04;8.40;99.90
15013;DHT22;7603;49.432;11.418;2022-10-31T07:01:30;8.60;99.90
15013;DHT22;7603;49.432;11.418;2022-10-31T07:03:56;8.70;99.90
15013;DHT22;7603;49.432;11.418;2022-10-31T07:06:22;8.80;99.90
15013;DHT22;7603;49.432;11.418;2022-10-31T07:08:47;9.00;99.90
15013;DHT22;7603;49.432;11.418;2022-10-31T07:11:13;9.10;99.90
15013;DHT22;7603;49.432;11.418;2022-10-31T07:13:38;9.20;99.90
15013;DHT22;7603;49.432;11.418;2022-10-31T07:16:05;9.30;99.90
15013;DHT22;7603;49.432;11.418;2022-10-31T07:18:32;9.50;99.90
15013;DHT22;7603;49.432;11.418;2022-10-31T07:20:58;9.60;99.90
15013;DHT22;7603;49.432;11.418;2022-10-31T07:23:24;9.80;99.90
15013;DHT22;7603;49.432;11.418;2022-10-31T07:25:57;9.90;99.90
15013;DHT22;7603;49.432;11.418;2022-10-31T07:28:24;10.00;99.90
15013;DHT22;7603;49.432;11.418;2022-10-31T07:30:54;10.20;99.90
15013;DHT22;7603;49.432;11.418;2022-10-31T07:33:20;10.30;99.90
15013;DHT22;7603;49.432;11.418;2022-10-31T07:35:46;10.50;99.90
15013;DHT22;7603;49.432;11.418;2022-10-31T07:38:13;10.80;99.90
15013;DHT22;7603;49.432;11.418;2022-10-31T07:40:40;11.00;99.90
15013;DHT22;7603;49.432;11.418;2022-10-31T07:43:07;11.30;99.90
15013;DHT22;7603;49.432;11.418;2022-10-31T07:45:32;11.60;99.90
15013;DHT22;7603;49.432;11.418;2022-10-31T07:47:58;12.00;99.90
15013;DHT22;7603;49.432;11.418;2022-10-31T07:50:26;12.30;99.90
15013;DHT22;7603;49.432;11.418;2022-10-31T07:53:03;12.80;99.90
15013;DHT22;7603;49.432;11.418;2022-10-31T07:55:29;13.20;99.90
15013;DHT22;7603;49.432;11.418;2022-10-31T07:58:04;13.60;99.90
15013;DHT22;7603;49.432;11.418;2022-10-31T08:00:32;14.00;99.90
15013;DHT22;7603;49.432;11.418;2022-10-31T08:03:08;14.40;99.90
15013;DHT22;7603;49.432;11.418;2022-10-31T08:05:35;14.80;99.90
15013;DHT22;7603;49.432;11.418;2022-10-31T08:08:02;15.30;99.90
15013;DHT22;7603;49.432;11.418;2022-10-31T08:10:28;15.80;99.90
15013;DHT22;7603;49.432;11.418;2022-10-31T08:13:13;16.30;99.90
15013;DHT22;7603;49.432;11.418;2022-10-31T08:15:39;16.80;99.90
15013;DHT22;7603;49.432;11.418;2022-10-31T08:18:13;17.40;99.90
15013;DHT22;7603;49.432;11.418;2022-10-31T08:20:40;18.00;99.90
15013;DHT22;7603;49.432;11.418;2022-10-31T08:23:06;18.60;99.90
15013;DHT22;7603;49.432;11.418;2022-10-31T08:25:34;19.20;99.90
15013;DHT22;7603;49.432;11.418;2022-10-31T08:28:00;19.90;99.90
15013;DHT22;7603;49.432;11.418;2022-10-31T08:30:28;20.50;99.90
15013;DHT22;7603;49.432;11.418;2022-10-31T08:35:31;21.90;99.90
15013;DHT22;7603;49.432;11.418;2022-10-31T08:37:57;22.60;99.90
15013;DHT22;7603;49.432;11.418;2022-10-31T08:40:24;23.40;99.90
15013;DHT22;7603;49.432;11.418;2022-10-31T08:43:00;24.10;99.90
15013;DHT22;7603;49.432;11.418;2022-10-31T08:45:26;24.90;99.90
15013;DHT22;7603;49.432;11.418;2022-10-31T08:47:52;25.60;99.90
15013;DHT22;7603;49.432;11.418;2022-10-31T08:50:21;26.30;99.90
15013;DHT22;7603;49.432;11.418;2022-10-31T08:52:47;27.00;99.90
15013;DHT22;7603;49.432;11.418;2022-10-31T08:55:13;27.70;99.90
15013;DHT22;7603;49.432;11.418;2022-10-31T08:57:38;28.30;99.90
15013;DHT22;7603;49.432;11.418;2022-10-31T09:00:04;28.90;99.90
15013;DHT22;7603;49.432;11.418;2022-10-31T09:02:30;29.40;99.90
15013;DHT22;7603;49.432;11.418;2022-10-31T09:04:56;29.80;99.90
15013;DHT22;7603;49.432;11.418;2022-10-31T09:07:21;30.20;99.90
15013;DHT22;7603;49.432;11.418;2022-10-31T09:09:47;30.80;99.70
15013;DHT22;7603;49.432;11.418;2022-10-31T09:12:13;31.40;96.40
15013;DHT22;7603;49.432;11.418;2022-10-31T09:14:38;32.10;93.70
15013;DHT22;7603;49.432;11.418;2022-10-31T09:17:04;32.60;88.70
15013;DHT22;7603;49.432;11.418;2022-10-31T09:19:29;33.20;85.10
15013;DHT22;7603;49.432;11.418;2022-10-31T09:21:55;33.70;80.80
15013;DHT22;7603;49.432;11.418;2022-10-31T09:24:21;34.00;70.30
15013;DHT22;7603;49.432;11.418;2022-10-31T09:26:47;34.40;67.20
15013;DHT22;7603;49.432;11.418;2022-10-31T09:29:13;34.70;64.40
15013;DHT22;7603;49.432;11.418;2022-10-31T09:31:38;34.90;59.00
15013;DHT22;7603;49.432;11.418;2022-10-31T09:34:04;35.10;55.90
15013;DHT22;7603;49.432;11.418;2022-10-31T09:36:30;35.20;55.40
15013;DHT22;7603;49.432;11.418;2022-10-31T09:38:55;35.40;53.60
15013;DHT22;7603;49.432;11.418;2022-10-31T09:41:26;35.50;52.60
15013;DHT22;7603;49.432;11.418;2022-10-31T09:46:40;36.40;49.30
15013;DHT22;7603;49.432;11.418;2022-10-31T09:57:36;38.30;45.00
15013;DHT22;7603;49.432;11.418;2022-10-31T10:00:06;38.70;42.90
15013;DHT22;7603;49.432;11.418;2022-10-31T10:02:49;39.10;41.90
15013;DHT22;7603;49.432;11.418;2022-10-31T10:05:46;39.30;39.60
15013;DHT22;7603;49.432;11.418;2022-10-31T10:08:19;39.40;39.60
15013;DHT22;7603;49.432;11.418;2022-10-31T10:10:52;39.60;41.60
15013;DHT22;7603;49.432;11.418;2022-10-31T10:13:32;39.80;41.10
15013;DHT22;7603;49.432;11.418;2022-10-31T10:19:05;40.40;40.20
15013;DHT22;7603;49.432;11.418;2022-10-31T10:21:58;40.40;39.80
15013;DHT22;7603;49.432;11.418;2022-10-31T10:27:03;40.60;39.30
15013;DHT22;7603;49.432;11.418;2022-10-31T10:29:41;40.80;37.30
15013;DHT22;7603;49.432;11.418;2022-10-31T10:32:17;41.20;38.00
15013;DHT22;7603;49.432;11.418;2022-10-31T10:34:49;41.30;35.60
15013;DHT22;7603;49.432;11.418;2022-10-31T10:37:30;41.20;36.80
15013;DHT22;7603;49.432;11.418;2022-10-31T10:40:11;41.20;37.40
15013;DHT22;7603;49.432;11.418;2022-10-31T10:42:38;41.10;36.70
15013;DHT22;7603;49.432;11.418;2022-10-31T10:45:22;41.10;37.10
15013;DHT22;7603;49.432;11.418;2022-10-31T10:50:44;41.30;35.80
15013;DHT22;7603;49.432;11.418;2022-10-31T10:58:58;42.70;32.40
15013;DHT22;7603;49.432;11.418;2022-10-31T11:01:24;43.10;32.80
15013;DHT22;7603;49.432;11.418;2022-10-31T11:03:50;43.30;32.30
15013;DHT22;7603;49.432;11.418;2022-10-31T11:06:18;43.30;32.40
15013;DHT22;7603;49.432;11.418;2022-10-31T11:08:48;43.30;31.70
15013;DHT22;7603;49.432;11.418;2022-10-31T11:13:45;43.40;30.60
15013;DHT22;7603;49.432;11.418;2022-10-31T11:16:15;43.50;31.20
15013;DHT22;7603;49.432;11.418;2022-10-31T11:18:52;43.60;30.80
15013;DHT22;7603;49.432;11.418;2022-10-31T11:21:25;43.70;30.20
15013;DHT22;7603;49.432;11.418;2022-10-31T11:24:07;43.50;30.40
15013;DHT22;7603;49.432;11.418;2022-10-31T11:26:38;43.30;29.60
15013;DHT22;7603;49.432;11.418;2022-10-31T11:29:09;43.20;30.60
15013;DHT22;7603;49.432;11.418;2022-10-31T11:31:36;42.90;30.40
15013;DHT22;7603;49.432;11.418;2022-10-31T11:34:05;42.60;31.20
15013;DHT22;7603;49.432;11.418;2022-10-31T11:36:35;42.10;30.50
15013;DHT22;7603;49.432;11.418;2022-10-31T11:39:04;41.70;31.20
15013;DHT22;7603;49.432;11.418;2022-10-31T11:41:35;41.10;32.10
15013;DHT22;7603;49.432;11.418;2022-10-31T11:44:13;40.60;32.70
15013;DHT22;7603;49.432;11.418;2022-10-31T11:46:46;40.00;32.90
15013;DHT22;7603;49.432;11.418;2022-10-31T11:51:53;38.70;33.70
15013;DHT22;7603;49.432;11.418;2022-10-31T11:54:29;38.20;34.60
15013;DHT22;7603;49.432;11.418;2022-10-31T11:56:57;37.70;35.10
15013;DHT22;7603;49.432;11.418;2022-10-31T11:59:30;37.30;35.70
15013;DHT22;7603;49.432;11.418;2022-10-31T12:01:58;36.60;35.80
15013;DHT22;7603;49.432;11.418;2022-10-31T12:05:17;36.00;36.50
15013;DHT22;7603;49.432;11.418;2022-10-31T12:07:18;35.70;37.20
15013;DHT22;7603;49.432;11.418;2022-10-31T12:09:44;35.50;37.10
15013;DHT22;7603;49.432;11.418;2022-10-31T12:12:26;35.20;37.70
15013;DHT22;7603;49.432;11.418;2022-10-31T12:18:43;35.00;38.20
15013;DHT22;7603;49.432;11.418;2022-10-31T12:21:11;35.00;38.70
15013;DHT22;7603;49.432;11.418;2022-10-31T12:37:05;38.20;37.00
15013;DHT22;7603;49.432;11.418;2022-10-31T12:51:06;38.40;36.20
15013;DHT22;7603;49.432;11.418;2022-10-31T12:59:35;36.40;37.90
15013;DHT22;7603;49.432;11.418;2022-10-31T13:05:02;35.20;39.10
15013;DHT22;7603;49.432;11.418;2022-10-31T13:07:44;34.60;39.50
15013;DHT22;7603;49.432;11.418;2022-10-31T13:10:18;33.90;39.60
15013;DHT22;7603;49.432;11.418;2022-10-31T13:12:51;33.30;40.60
15013;DHT22;7603;49.432;11.418;2022-10-31T13:15:22;32.70;41.50
15013;DHT22;7603;49.432;11.418;2022-10-31T13:17:57;32.10;42.40
15013;DHT22;7603;49.432;11.418;2022-10-31T13:20:34;31.60;43.40
15013;DHT22;7603;49.432;11.418;2022-10-31T13:23:16;31.00;44.20
15013;DHT22;7603;49.432;11.418;2022-10-31T13:25:47;30.50;45.50
15013;DHT22;7603;49.432;11.418;2022-10-31T13:28:29;30.00;46.50
15013;DHT22;7603;49.432;11.418;2022-10-31T13:30:56;29.50;47.60
15013;DHT22;7603;49.432;11.418;2022-10-31T13:36:24;28.80;49.00
15013;DHT22;7603;49.432;11.418;2022-10-31T13:38:52;28.50;49.50
15013;DHT22;7603;49.432;11.418;2022-10-31T13:44:18;27.60;51.60
15013;DHT22;7603;49.432;11.418;2022-10-31T13:46:46;27.20;52.20
15013;DHT22;7603;49.432;11.418;2022-10-31T13:54:47;26.00;54.90
15013;DHT22;7603;49.432;11.418;2022-10-31T13:57:22;25.70;55.70
15013;DHT22;7603;49.432;11.418;2022-10-31T13:59:58;25.40;56.40
15013;DHT22;7603;49.432;11.418;2022-10-31T14:02:27;25.20;57.30
15013;DHT22;7603;49.432;11.418;2022-10-31T14:04:58;25.10;57.70
15013;DHT22;7603;49.432;11.418;2022-10-31T14:07:24;25.00;58.40
15013;DHT22;7603;49.432;11.418;2022-10-31T14:12:41;26.50;57.30
15013;DHT22;7603;49.432;11.418;2022-10-31T14:15:26;28.10;55.30
15013;DHT22;7603;49.432;11.418;2022-10-31T14:17:57;30.00;52.10
15013;DHT22;7603;49.432;11.418;2022-10-31T14:20:41;31.50;50.00
15013;DHT22;7603;49.432;11.418;2022-10-31T14:28:49;31.50;47.50
15013;DHT22;7603;49.432;11.418;2022-10-31T14:33:50;30.00;49.60
15013;DHT22;7603;49.432;11.418;2022-10-31T14:36:28;29.40;50.70
15013;DHT22;7603;49.432;11.418;2022-10-31T14:39:13;28.70;51.80
15013;DHT22;7603;49.432;11.418;2022-10-31T14:45:08;27.20;54.10
15013;DHT22;7603;49.432;11.418;2022-10-31T14:53:33;25.10;57.80
15013;DHT22;7603;49.432;11.418;2022-10-31T14:56:00;24.60;59.40
15013;DHT22;7603;49.432;11.418;2022-10-31T15:00:58;23.60;62.80
15013;DHT22;7603;49.432;11.418;2022-10-31T15:03:39;23.20;64.10
15013;DHT22;7603;49.432;11.418;2022-10-31T15:06:13;22.90;66.00
15013;DHT22;7603;49.432;11.418;2022-10-31T15:08:48;22.60;67.80
15013;DHT22;7603;49.432;11.418;2022-10-31T15:11:20;22.30;69.80
15013;DHT22;7603;49.432;11.418;2022-10-31T15:13:56;22.00;72.50
15013;DHT22;7603;49.432;11.418;2022-10-31T15:16:25;21.80;73.40
15013;DHT22;7603;49.432;11.418;2022-10-31T15:18:54;21.60;76.10
15013;DHT22;7603;49.432;11.418;2022-10-31T15:21:22;21.30;78.50
15013;DHT22;7603;49.432;11.418;2022-10-31T15:23:50;21.10;81.40
15013;DHT22;7603;49.432;11.418;2022-10-31T15:26:23;20.90;86.10
15013;DHT22;7603;49.432;11.418;2022-10-31T15:29:05;20.60;88.30
15013;DHT22;7603;49.432;11.418;2022-10-31T15:31:32;20.30;91.10
15013;DHT22;7603;49.432;11.418;2022-10-31T15:34:05;20.10;92.20
15013;DHT22;7603;49.432;11.418;2022-10-31T15:36:32;19.90;94.10
15013;DHT22;7603;49.432;11.418;2022-10-31T15:38:58;19.70;95.50
15013;DHT22;7603;49.432;11.418;2022-10-31T15:44:19;19.30;98.40
15013;DHT22;7603;49.432;11.418;2022-10-31T15:46:57;19.20;99.90
15013;DHT22;7603;49.432;11.418;2022-10-31T15:49:35;18.90;99.90
15013;DHT22;7603;49.432;11.418;2022-10-31T15:52:29;18.70;99.90
15013;DHT22;7603;49.432;11.418;2022-10-31T15:55:22;18.50;99.90
15013;DHT22;7603;49.432;11.418;2022-10-31T15:57:50;18.30;99.90
15013;DHT22;7603;49.432;11.418;2022-10-31T16:03:03;17.90;99.90
15013;DHT22;7603;49.432;11.418;2022-10-31T16:05:36;17.80;99.90
15013;DHT22;7603;49.432;11.418;2022-10-31T16:08:02;17.60;99.90
15013;DHT22;7603;49.432;11.418;2022-10-31T16:10:33;17.40;99.90
15013;DHT22;7603;49.432;11.418;2022-10-31T16:13:00;17.30;99.90
15013;DHT22;7603;49.432;11.418;2022-10-31T16:15:27;17.10;99.90
15013;DHT22;7603;49.432;11.418;2022-10-31T16:17:53;17.00;99.90
15013;DHT22;7603;49.432;11.418;2022-10-31T16:20:21;16.90;99.90
15013;DHT22;7603;49.432;11.418;2022-10-31T16:22:50;16.70;99.90
15013;DHT22;7603;49.432;11.418;2022-10-31T16:25:22;16.70;99.90
15013;DHT22;7603;49.432;11.418;2022-10-31T16:27:51;16.50;99.90
15013;DHT22;7603;49.432;11.418;2022-10-31T16:33:04;16.30;99.90
15013;DHT22;7603;49.432;11.418;2022-10-31T16:35:38;16.20;99.90
15013;DHT22;7603;49.432;11.418;2022-10-31T16:38:04;16.20;99.90
15013;DHT22;7603;49.432;11.418;2022-10-31T16:40:31;16.10;99.90
15013;DHT22;7603;49.432;11.418;2022-10-31T16:42:58;16.00;99.90
15013;DHT22;7603;49.432;11.418;2022-10-31T16:45:30;15.90;99.90
15013;DHT22;7603;49.432;11.418;2022-10-31T16:48:09;15.70;99.90
15013;DHT22;7603;49.432;11.418;2022-10-31T16:50:37;15.50;99.90
15013;DHT22;7603;49.432;11.418;2022-10-31T16:53:03;15.40;99.90
15013;DHT22;7603;49.432;11.418;2022-10-31T16:55:29;15.30;99.90
15013;DHT22;7603;49.432;11.418;2022-10-31T16:57:56;15.10;99.90
15013;DHT22;7603;49.432;11.418;2022-10-31T17:00:25;15.00;99.90
15013;DHT22;7603;49.432;11.418;2022-10-31T17:02:54;14.90;99.90
15013;DHT22;7603;49.432;11.418;2022-10-31T17:05:22;14.70;99.90
15013;DHT22;7603;49.432;11.418;2022-10-31T17:07:56;14.60;99.90
15013;DHT22;7603;49.432;11.418;2022-10-31T17:10:22;14.50;99.90
15013;DHT22;7603;49.432;11.418;2022-10-31T17:12:48;14.40;99.90
15013;DHT22;7603;49.432;11.418;2022-10-31T17:15:20;14.20;99.90
15013;DHT22;7603;49.432;11.418;2022-10-31T17:17:46;14.10;99.90
15013;DHT22;7603;49.432;11.418;2022-10-31T17:20:22;13.90;99.90
15013;DHT22;7603;49.432;11.418;2022-10-31T17:22:49;13.80;99.90
15013;DHT22;7603;49.432;11.418;2022-10-31T17:25:21;13.70;99.90
15013;DHT22;7603;49.432;11.418;2022-10-31T17:27:47;13.50;99.90
15013;DHT22;7603;49.432;11.418;2022-10-31T17:30:14;13.40;99.90
15013;DHT22;7603;49.432;11.418;2022-10-31T17:32:41;13.30;99.90
15013;DHT22;7603;49.432;11.418;2022-10-31T17:35:08;13.20;99.90
15013;DHT22;7603;49.432;11.418;2022-10-31T17:37:34;13.00;99.90
15013;DHT22;7603;49.432;11.418;2022-10-31T17:40:00;12.90;99.90
15013;DHT22;7603;49.432;11.418;2022-10-31T17:42:26;12.80;99.90
15013;DHT22;7603;49.432;11.418;2022-10-31T17:44:52;12.70;99.90
15013;DHT22;7603;49.432;11.418;2022-10-31T17:47:17;12.60;99.90
15013;DHT22;7603;49.432;11.418;2022-10-31T17:49:43;12.50;99.90
15013;DHT22;7603;49.432;11.418;2022-10-31T17:52:09;12.50;99.90
15013;DHT22;7603;49.432;11.418;2022-10-31T17:54:34;12.40;99.90
15013;DHT22;7603;49.432;11.418;2022-10-31T17:57:00;12.30;99.90
15013;DHT22;7603;49.432;11.418;2022-10-31T17:59:25;12.20;99.90
15013;DHT22;7603;49.432;11.418;2022-10-31T18:01:55;12.10;99.90
15013;DHT22;7603;49.432;11.418;2022-10-31T18:04:20;12.10;99.90
15013;DHT22;7603;49.432;11.418;2022-10-31T18:06:46;12.00;99.90
15013;DHT22;7603;49.432;11.418;2022-10-31T18:09:14;11.90;99.90